Carrie, Kentucky
Current Conditions -  °F | °C
As of 7:53 AM on Monday 22 Dec 2014 (Local Time) from KJKL Reporting Station
Broken Clouds Broken Clouds  
Wind Chill: 40°   Ceiling: 4800
Heat Index: 40°   Visibility: 10mi
Dew Point: 33°   Wind: 3mph
Humidity: 77%   Direction: 100°E
Pressure: 30.02"   Gusts: NA
Location:  37.33°N, 83.03°W
Report Text: KJKL 221253Z AUTO 10003KT 10SM FEW030 BKN048 BKN060 04/01 A3002 RMK AO2 SLP172 T00440006
Loading
Personal Weather Stations






























Interactive Weather Map New forecast layout! Learn more

10-Day Weather Forecast

Advertisements
Track Severe Weather on mobile